Time;durP1;ratioP1;P1;durP2;ratioP2;P2;SDS_P1;SDS_P2;PMS_P1;PMS_P2;Temp;Humidity;BMP_temperature;BMP_pressure;BME280_temperature;BME280_humidity;BME280_pressure;Samples;Min_cycle;Max_cycle;Signal;HPM_P1;HPM_P2
2023/07/13 04:43:35;;;;;;;5.93;3.75;;;;;;;24.93;76.36;100251.53;5615481;31;77288;-60
2023/07/13 04:46:38;;;;;;;7.03;3.35;;;;;;;24.93;76.36;100251.53;5583816;32;33421;-60
2023/07/13 04:49:40;;;;;;;15.80;4.03;;;;;;;24.48;73.16;100253.53;5583876;31;34166;-61
2023/07/13 04:52:42;;;;;;;8.40;3.70;;;;;;;24.43;78.09;100249.16;5583761;32;33661;-61
2023/07/13 04:55:45;;;;;;;8.05;3.10;;;;;;;24.37;77.36;100262.41;5583850;32;34319;-61
2023/07/13 04:58:48;;;;;;;7.90;3.22;;;;;;;24.34;78.30;100276.06;5583917;32;34246;-61
2023/07/13 05:01:50;;;;;;;8.32;3.80;;;;;;;24.23;78.95;100292.38;5583690;31;33728;-61
2023/07/13 05:04:53;;;;;;;7.72;3.92;;;;;;;24.30;81.53;100299.88;5581985;31;34170;-61
2023/07/13 05:07:57;;;;;;;10.38;3.85;;;;;;;24.11;80.38;100337.25;5583492;31;34263;-61
2023/07/13 05:11:01;;;;;;;5.50;2.97;;;;;;;23.83;81.99;100380.69;5583672;31;33930;-60
2023/07/13 05:14:04;;;;;;;8.35;3.53;;;;;;;23.71;83.03;100413.72;5577989;32;33663;-61
2023/07/13 05:17:06;;;;;;;7.30;3.75;;;;;;;23.76;84.77;100427.91;5564086;32;34275;-60
2023/07/13 05:20:09;;;;;;;8.70;3.60;;;;;;;23.50;83.58;100447.00;5563921;32;33595;-61
2023/07/13 05:23:12;;;;;;;7.90;4.32;;;;;;;23.14;88.21;100457.31;5563990;32;34526;-60
2023/07/13 05:26:14;;;;;;;7.95;3.90;;;;;;;22.88;91.09;100455.25;5563894;32;34225;-60
2023/07/13 05:29:17;;;;;;;5.85;3.40;;;;;;;22.84;92.88;100444.25;5563983;32;33638;-61
2023/07/13 05:32:19;;;;;;;6.20;3.42;;;;;;;22.60;94.08;100439.88;5563909;32;34225;-60
2023/07/13 05:35:22;;;;;;;7.05;3.60;;;;;;;22.56;92.87;100432.78;5564008;32;33545;-61
2023/07/13 05:38:24;;;;;;;7.87;3.37;;;;;;;22.41;93.92;100424.28;5563778;32;33555;-60
2023/07/13 05:41:27;;;;;;;8.65;3.80;;;;;;;22.26;94.99;100409.53;5563781;32;33613;-61
2023/07/13 05:44:31;;;;;;;4.45;2.55;;;;;;;22.20;98.85;100410.97;5563823;32;34324;-60
2023/07/13 05:47:34;;;;;;;5.45;2.53;;;;;;;22.15;93.53;100413.16;5563606;32;33703;-60
2023/07/13 05:50:36;;;;;;;6.65;2.75;;;;;;;22.02;95.87;100413.31;5563476;32;33272;-60
2023/07/13 05:53:40;;;;;;;5.05;2.55;;;;;;;22.11;95.72;100396.69;5556128;32;33640;-60
2023/07/13 05:56:42;;;;;;;3.90;1.85;;;;;;;22.08;95.54;100381.03;5550623;32;34315;-60
2023/07/13 05:59:44;;;;;;;3.60;2.15;;;;;;;21.99;91.59;100372.28;5550378;32;34252;-60
2023/07/13 06:02:46;;;;;;;3.37;2.12;;;;;;;21.88;92.85;100371.25;5550392;32;33655;-60
2023/07/13 06:05:49;;;;;;;7.43;2.60;;;;;;;21.64;91.42;100351.25;5550540;32;33552;-60
2023/07/13 06:08:52;;;;;;;4.85;2.25;;;;;;;21.73;95.71;100335.47;5550646;32;33596;-60
2023/07/13 06:11:55;;;;;;;4.35;2.15;;;;;;;21.56;99.34;100286.78;5562205;32;33631;-60
2023/07/13 06:14:58;;;;;;;2.80;2.00;;;;;;;21.58;91.59;100192.50;5569889;32;33660;-60
2023/07/13 06:18:00;;;;;;;6.28;1.87;;;;;;;21.48;90.84;100080.47;5570011;32;33526;-60
2023/07/13 06:21:08;;;;;;;4.12;2.30;;;;;;;21.60;90.29;99992.25;5570022;32;33630;-60
2023/07/13 06:24:11;;;;;;;5.70;2.30;;;;;;;21.62;94.85;100039.03;5569757;32;34285;-60
2023/07/13 06:27:13;;;;;;;4.43;2.10;;;;;;;21.69;94.08;100071.91;5570008;32;33643;-60
2023/07/13 06:30:16;;;;;;;4.10;2.20;;;;;;;21.68;93.59;100056.69;5569762;32;33640;-60
2023/07/13 06:33:18;;;;;;;3.08;1.95;;;;;;;21.68;91.60;100029.41;5569990;32;34438;-60
2023/07/13 06:36:20;;;;;;;2.90;1.87;;;;;;;21.76;89.99;100017.47;5569836;32;33594;-60
2023/07/13 06:39:22;;;;;;;4.70;2.40;;;;;;;21.71;91.15;99995.94;5569952;32;33636;-60
2023/07/13 06:42:25;;;;;;;4.68;2.40;;;;;;;21.95;99.63;100032.97;5569522;32;34374;-60
2023/07/13 06:45:27;;;;;;;5.65;2.40;;;;;;;21.98;92.02;100046.66;5569874;32;34183;-60
2023/07/13 06:48:30;;;;;;;4.72;2.30;;;;;;;21.83;94.90;100036.69;5569709;32;33758;-60
2023/07/13 06:51:32;;;;;;;6.35;2.25;;;;;;;21.93;96.21;100044.28;5569825;32;33653;-60
2023/07/13 06:54:35;;;;;;;3.72;2.20;;;;;;;21.85;92.60;100048.00;5569690;32;33685;-61
2023/07/13 07:09:59;;;;;;;5.68;1.98;;;;;;;22.63;90.76;100072.28;5549401;32;34148;-60
2023/07/13 07:13:03;;;;;;;6.32;2.25;;;;;;;22.79;88.39;100075.63;5546902;32;33577;-61
2023/07/13 07:16:05;;;;;;;4.57;2.28;;;;;;;22.78;89.37;100090.44;5547754;32;34166;-60
2023/07/13 07:19:07;;;;;;;3.65;2.65;;;;;;;22.69;92.65;100249.19;5549944;32;34334;-60
2023/07/13 07:22:10;;;;;;;3.60;2.40;;;;;;;22.82;93.98;100218.94;5549823;32;34364;-60
2023/07/13 07:25:12;;;;;;;3.60;2.75;;;;;;;22.84;94.13;100250.19;5550146;32;34207;-60
2023/07/13 07:28:19;;;;;;;6.25;2.65;;;;;;;22.85;92.58;100259.22;5549885;32;34356;-61
2023/07/13 07:31:24;;;;;;;5.07;2.87;;;;;;;22.93;92.27;100267.16;5550011;32;33591;-61
2023/07/13 07:34:30;;;;;;;5.57;3.20;;;;;;;22.86;91.45;100264.28;5549848;32;34161;-60
2023/07/13 07:37:33;;;;;;;5.68;2.90;;;;;;;22.95;90.86;100277.75;5549965;32;34379;-60
2023/07/13 07:40:40;;;;;;;4.62;2.72;;;;;;;22.95;87.45;100292.19;5548695;32;33664;-60
2023/07/13 07:43:45;;;;;;;4.65;2.70;;;;;;;23.08;87.63;100278.31;5549638;32;33646;-61
2023/07/13 07:46:48;;;;;;;4.28;2.60;;;;;;;23.29;89.43;100284.13;5549886;32;34178;-60
2023/07/13 07:49:51;;;;;;;4.35;2.22;;;;;;;23.28;83.02;100277.06;5549673;32;33681;-60
2023/07/13 07:52:53;;;;;;;6.28;2.78;;;;;;;23.49;85.59;100275.81;5549760;32;34314;-60
2023/07/13 07:55:56;;;;;;;7.93;2.65;;;;;;;23.69;85.22;100274.53;5549653;32;33692;-60
2023/07/13 08:03:33;;;;;;;3.37;2.65;;;;;;;24.13;80.86;100282.09;5546182;32;35349;-60
2023/07/13 08:06:40;;;;;;;4.65;2.50;;;;;;;24.55;81.05;100270.81;5549609;32;34316;-59
2023/07/13 08:09:47;;;;;;;4.15;2.28;;;;;;;24.65;76.15;100274.03;5549614;32;34302;-60
2023/07/13 08:12:49;;;;;;;4.30;2.80;;;;;;;24.90;77.38;100266.81;5549630;32;33567;-60
2023/07/13 08:15:55;;;;;;;4.43;2.60;;;;;;;25.01;76.66;100261.41;5548928;32;33561;-59
2023/07/13 08:18:57;;;;;;;7.90;2.53;;;;;;;25.16;71.85;100276.03;5549526;32;33696;-59
2023/07/13 08:22:00;;;;;;;4.37;2.72;;;;;;;25.35;72.60;100272.22;5549094;32;34462;-59
2023/07/13 08:25:02;;;;;;;6.50;3.47;;;;;;;25.45;72.56;100282.47;5549475;32;34294;-60
2023/07/13 08:28:04;;;;;;;5.03;2.72;;;;;;;25.42;68.87;100272.25;5549068;32;33824;-60
2023/07/13 08:31:07;;;;;;;4.53;2.80;;;;;;;25.49;69.39;100278.56;5549315;32;33709;-60
2023/07/13 08:34:09;;;;;;;3.62;2.60;;;;;;;25.54;70.37;100277.44;5549257;32;33750;-60
2023/07/13 08:37:13;;;;;;;4.40;2.70;;;;;;;25.66;68.83;100268.88;5549189;32;33516;-59
2023/07/13 08:40:16;;;;;;;4.20;3.03;;;;;;;25.76;70.83;100279.12;5548952;32;34194;-60
2023/07/13 08:43:35;;;;;;;3.55;2.60;;;;;;;25.81;68.19;100267.00;5548566;32;33525;-60
2023/07/13 08:46:42;;;;;;;3.90;2.70;;;;;;;25.86;69.40;100274.06;5549092;32;34474;-60
2023/07/13 08:49:44;;;;;;;4.55;2.87;;;;;;;25.96;67.56;100278.81;5548833;32;33566;-60
2023/07/13 08:52:47;;;;;;;3.15;2.42;;;;;;;26.08;67.89;100274.94;5548925;32;33693;-59
2023/07/13 08:55:55;;;;;;;5.35;2.58;;;;;;;26.08;65.87;100278.47;5548867;32;34333;-59
2023/07/13 08:59:10;;;;;;;4.80;2.25;;;;;;;26.06;67.26;100282.75;5548868;32;33706;-60
2023/07/13 09:02:39;;;;;;;4.78;2.70;;;;;;;26.00;68.12;100280.41;5548595;32;33561;-60
2023/07/13 09:05:42;;;;;;;4.15;2.60;;;;;;;25.95;66.29;100269.78;5547450;32;34169;-60
2023/07/13 09:08:56;;;;;;;4.18;2.80;;;;;;;26.01;64.50;100268.25;5548736;32;33691;-59
2023/07/13 09:12:21;;;;;;;7.82;3.28;;;;;;;26.05;67.48;100268.25;5548339;32;33702;-60
2023/07/13 09:15:44;;;;;;;5.53;2.92;;;;;;;26.00;65.81;100279.62;5538140;32;34250;-60
2023/07/13 09:18:50;;;;;;;4.82;2.60;;;;;;;25.91;66.46;100268.22;5548531;32;33683;-59
2023/07/13 09:21:52;;;;;;;;;;;;;;;26.06;69.36;100272.59;5548693;32;33677;-60
2023/07/13 09:25:11;;;;;;;3.37;2.58;;;;;;;26.02;68.36;100266.28;5548426;32;34620;-60
2023/07/13 09:28:19;;;;;;;5.90;2.85;;;;;;;26.06;68.54;100267.09;5548926;32;33587;-60
2023/07/13 09:31:33;;;;;;;5.25;3.00;;;;;;;26.20;66.98;100272.62;5551038;32;34301;-60
2023/07/13 09:34:36;;;;;;;6.10;2.95;;;;;;;26.30;66.15;100287.56;5550895;32;33150;-60
2023/07/13 09:37:41;;;;;;;4.60;2.80;;;;;;;26.36;63.62;100287.97;5558423;32;33589;-60
2023/07/13 09:40:58;;;;;;;5.18;3.00;;;;;;;26.39;64.47;100295.41;5570301;32;33269;-60
2023/07/13 09:44:12;;;;;;;4.18;2.83;;;;;;;26.46;65.68;100300.94;5570091;32;33757;-59
2023/07/13 09:47:23;;;;;;;5.28;2.95;;;;;;;26.46;62.45;100298.97;5570361;32;33676;-59
2023/07/13 09:50:26;;;;;;;4.45;2.95;;;;;;;26.59;63.55;100291.19;5570296;32;33547;-59
2023/07/13 09:57:49;;;;;;;6.40;3.25;;;;;;;26.57;62.97;100309.22;5568135;32;34193;-60
2023/07/13 10:01:39;;;;;;;4.28;2.97;;;;;;;26.54;63.18;100307.25;5570118;32;33607;-59
2023/07/13 10:09:18;;;;;;;3.95;3.25;;;;;;;26.54;65.50;100310.78;5570217;32;34555;-60
2023/07/13 10:12:25;;;;;;;4.75;3.03;;;;;;;26.50;63.54;100312.75;5570091;32;33607;-59
2023/07/13 10:15:27;;;;;;;6.85;2.92;;;;;;;26.55;62.59;100314.31;5569866;31;34402;-60
2023/07/13 10:18:35;;;;;;;4.53;3.37;;;;;;;26.68;62.20;100307.28;5570058;32;34478;-59
2023/07/13 10:21:54;;;;;;;3.70;2.83;;;;;;;26.71;62.43;100306.50;5570047;32;33615;-60
2023/07/13 10:24:57;;;;;;;4.00;2.80;;;;;;;26.81;62.42;100313.97;5570105;32;33697;-59
2023/07/13 10:28:15;;;;;;;3.20;2.40;;;;;;;26.83;60.00;100308.88;5570088;32;34454;-60
2023/07/13 10:31:19;;;;;;;5.60;3.08;;;;;;;26.85;59.38;100313.97;5570019;32;33714;-59
2023/07/13 10:34:23;;;;;;;4.72;3.03;;;;;;;26.82;60.79;100321.06;5570013;32;34197;-59
2023/07/13 10:37:30;;;;;;;3.72;2.62;;;;;;;26.84;60.03;100323.41;5568933;32;33533;-59
2023/07/13 10:41:01;;;;;;;4.70;2.53;;;;;;;26.83;60.11;100319.09;5569818;32;33575;-60
2023/07/13 10:44:06;;;;;;;3.30;2.65;;;;;;;26.97;59.24;100318.28;5569867;32;33675;-59
2023/07/13 10:47:18;;;;;;;5.87;3.00;;;;;;;26.93;58.46;100316.31;5569946;32;33714;-59
2023/07/13 10:50:24;;;;;;;3.17;2.55;;;;;;;27.04;58.98;100313.56;5569951;32;33599;-60
2023/07/13 10:53:33;;;;;;;4.68;2.72;;;;;;;27.10;60.00;100320.25;5569986;32;34245;-59
2023/07/13 10:56:35;;;;;;;3.58;2.90;;;;;;;27.11;58.13;100319.06;5569847;32;33177;-59
2023/07/13 10:59:37;;;;;;;4.32;2.62;;;;;;;27.14;60.04;100314.78;5569862;32;33753;-60
2023/07/13 11:02:40;;;;;;;3.87;2.55;;;;;;;27.17;59.36;100311.22;5569651;32;33691;-60
2023/07/13 11:05:42;;;;;;;4.55;2.42;;;;;;;27.23;59.56;100300.63;5569788;32;33715;-60
2023/07/13 11:08:48;;;;;;;3.67;2.30;;;;;;;27.26;60.27;100299.84;5569485;32;34400;-60
2023/07/13 11:11:50;;;;;;;4.72;2.30;;;;;;;27.35;58.12;100302.94;5569732;32;33740;-60
2023/07/13 11:14:56;;;;;;;4.10;2.47;;;;;;;27.45;57.95;100307.66;5569719;31;33822;-60
2023/07/13 11:18:03;;;;;;;3.47;2.10;;;;;;;27.56;57.00;100302.91;5569654;32;33654;-59
2023/07/13 11:21:20;;;;;;;3.20;2.17;;;;;;;27.66;55.29;100314.28;5569758;32;33658;-60
2023/07/13 11:25:21;;;;;;;2.65;2.10;;;;;;;27.78;56.16;100302.84;5569533;32;33749;-60
2023/07/13 11:28:29;;;;;;;3.12;2.35;;;;;;;27.91;53.91;100303.97;5542324;31;33830;-61
2023/07/13 11:31:33;;;;;;;2.58;2.17;;;;;;;27.86;55.19;100299.69;5569608;32;33597;-61
2023/07/13 11:34:38;;;;;;;3.55;2.05;;;;;;;27.92;54.71;100297.31;5569530;32;33602;-61
2023/07/13 11:37:40;;;;;;;3.33;2.30;;;;;;;27.90;52.51;100307.94;5569519;32;33451;-61
2023/07/13 11:40:48;;;;;;;4.50;2.33;;;;;;;27.85;52.10;100302.84;5569477;32;33672;-61
2023/07/13 11:43:55;;;;;;;4.30;2.00;;;;;;;27.76;52.98;100300.50;5569372;32;34427;-61
2023/07/13 11:47:01;;;;;;;3.05;2.00;;;;;;;27.74;54.31;100299.31;5569462;32;33711;-61
2023/07/13 11:50:19;;;;;;;6.32;2.40;;;;;;;27.85;53.12;100302.84;5569075;32;34378;-61
2023/07/13 11:58:01;;;;;;;7.28;2.58;;;;;;;27.78;52.49;100300.91;5569265;32;33709;-61
2023/07/13 12:01:06;;;;;;;3.30;2.30;;;;;;;27.88;53.17;100307.53;5569492;32;33691;-61
2023/07/13 12:04:21;;;;;;;2.60;2.33;;;;;;;27.82;52.29;100300.88;5569309;32;33671;-61
2023/07/13 12:07:24;;;;;;;4.00;2.42;;;;;;;27.70;53.64;100298.53;5569208;32;34095;-61
2023/07/13 12:10:34;;;;;;;3.67;2.45;;;;;;;27.71;54.16;100291.84;5566889;32;33807;-61
2023/07/13 12:13:39;;;;;;;4.90;2.67;;;;;;;27.72;54.08;100290.66;5568964;32;33644;-61
2023/07/13 12:16:42;;;;;;;5.28;2.92;;;;;;;27.69;55.56;100291.47;5568734;32;33651;-61
2023/07/13 12:19:46;;;;;;;3.58;2.53;;;;;;;27.68;56.92;100276.09;5567658;32;33710;-61
2023/07/13 12:22:49;;;;;;;3.70;2.72;;;;;;;27.79;57.33;100290.66;5568985;32;34252;-61
2023/07/13 12:25:53;;;;;;;5.37;2.70;;;;;;;27.83;55.47;100283.94;5568656;32;33594;-61
2023/07/13 12:28:56;;;;;;;4.32;2.50;;;;;;;27.87;54.86;100292.97;5568866;32;33602;-61
2023/07/13 12:36:25;;;;;;;3.35;2.87;;;;;;;27.82;52.51;100267.84;5568689;32;34480;-60
2023/07/13 12:39:37;;;;;;;4.75;2.70;;;;;;;27.80;54.40;100259.19;5568683;32;33482;-60
2023/07/13 12:42:41;;;;;;;4.60;2.37;;;;;;;27.78;53.53;100269.78;5568405;32;34124;-60
2023/07/13 12:46:03;;;;;;;4.07;2.85;;;;;;;27.76;54.73;100269.41;5549423;32;34423;-60
2023/07/13 12:49:07;;;;;;;6.22;2.80;;;;;;;27.75;54.30;100279.62;5549260;32;34365;-60
2023/07/13 12:52:29;;;;;;;4.32;2.90;;;;;;;27.73;54.95;100282.00;5548845;32;33687;-60
2023/07/13 12:55:32;;;;;;;5.97;3.55;;;;;;;27.73;52.70;100278.47;5548870;32;33858;-60
2023/07/13 12:58:38;;;;;;;4.82;2.90;;;;;;;27.79;54.04;100274.13;5548761;32;33260;-60
2023/07/13 13:01:41;;;;;;;5.07;3.30;;;;;;;27.95;51.69;100270.94;5548830;32;34136;-60
2023/07/13 13:04:44;;;;;;;5.72;2.70;;;;;;;27.97;53.51;100269.31;5550712;32;33762;-60
2023/07/13 13:07:46;;;;;;;5.25;3.00;;;;;;;28.01;53.64;100263.78;5551097;32;33665;-60
2023/07/13 13:10:49;;;;;;;6.35;2.95;;;;;;;28.09;53.61;100277.13;5551348;32;33713;-60
2023/07/13 13:13:52;;;;;;;4.78;3.10;;;;;;;28.23;53.79;100267.22;5550930;32;33684;-60
2023/07/13 13:16:55;;;;;;;5.40;2.83;;;;;;;28.25;53.67;100259.34;5551282;32;33652;-60
2023/07/13 13:19:57;;;;;;;4.85;2.97;;;;;;;28.26;53.21;100255.38;5550866;32;34247;-60
2023/07/13 13:23:00;;;;;;;5.75;3.00;;;;;;;28.26;53.54;100247.91;5551075;32;34370;-60
2023/07/13 13:26:03;;;;;;;4.10;3.17;;;;;;;28.21;52.69;100244.78;5550671;32;33710;-60
2023/07/13 13:29:17;;;;;;;5.50;2.65;;;;;;;28.25;51.90;100246.34;5550906;32;34306;-60
2023/07/13 13:32:20;;;;;;;4.13;3.00;;;;;;;28.17;50.85;100252.28;5550890;32;33565;-60
2023/07/13 13:35:22;;;;;;;4.12;2.65;;;;;;;28.20;52.43;100251.47;5550868;32;34317;-60
2023/07/13 13:38:27;;;;;;;5.43;2.78;;;;;;;28.19;51.27;100252.69;5550787;32;33770;-60
2023/07/13 13:41:29;;;;;;;5.43;2.60;;;;;;;28.20;51.35;100254.25;5550840;32;33573;-60
2023/07/13 13:44:31;;;;;;;4.50;2.62;;;;;;;28.26;51.07;100241.59;5550453;32;34390;-60
2023/07/13 13:47:35;;;;;;;9.60;3.30;;;;;;;28.23;51.84;100242.41;5551056;32;33621;-62
2023/07/13 13:50:38;;;;;;;3.70;2.40;;;;;;;28.23;51.81;100243.19;5551004;32;34292;-62
2023/07/13 13:53:41;;;;;;;3.60;2.45;;;;;;;28.26;51.31;100239.63;5550961;32;33755;-62
2023/07/13 13:56:45;;;;;;;4.35;2.50;;;;;;;28.19;50.72;100238.91;5550949;32;34227;-62
2023/07/13 13:59:47;;;;;;;3.67;2.70;;;;;;;28.24;49.79;100233.72;5550798;32;33560;-62
2023/07/13 14:02:51;;;;;;;3.17;2.47;;;;;;;28.27;51.57;100254.19;5550924;32;34433;-62
2023/07/13 14:05:55;;;;;;;3.78;2.42;;;;;;;28.25;51.96;100251.84;5550853;32;33763;-62
2023/07/13 14:08:57;;;;;;;3.20;2.70;;;;;;;28.25;50.52;100237.28;5550783;32;34344;-62
